sensor_id;sensor_type;location;lat;lon;timestamp;temperature;humidity
820;DHT22;392;48.838;2.322;2023-02-04T00:00:14;11.40;56.10
820;DHT22;392;48.838;2.322;2023-02-04T00:02:42;11.30;56.50
820;DHT22;392;48.838;2.322;2023-02-04T00:05:11;11.30;57.00
820;DHT22;392;48.838;2.322;2023-02-04T00:07:39;11.40;57.40
820;DHT22;392;48.838;2.322;2023-02-04T00:10:07;11.40;57.00
820;DHT22;392;48.838;2.322;2023-02-04T00:12:35;11.40;57.00
820;DHT22;392;48.838;2.322;2023-02-04T00:15:03;11.30;56.70
820;DHT22;392;48.838;2.322;2023-02-04T00:17:31;11.30;57.10
820;DHT22;392;48.838;2.322;2023-02-04T00:19:58;11.30;57.60
820;DHT22;392;48.838;2.322;2023-02-04T00:22:27;11.30;57.70
820;DHT22;392;48.838;2.322;2023-02-04T00:24:54;11.30;57.70
820;DHT22;392;48.838;2.322;2023-02-04T00:27:21;11.30;57.80
820;DHT22;392;48.838;2.322;2023-02-04T00:29:48;11.30;58.40
820;DHT22;392;48.838;2.322;2023-02-04T00:32:16;11.30;58.30
820;DHT22;392;48.838;2.322;2023-02-04T00:34:43;11.30;58.20
820;DHT22;392;48.838;2.322;2023-02-04T00:37:10;11.30;58.60
820;DHT22;392;48.838;2.322;2023-02-04T00:39:39;11.40;58.60
820;DHT22;392;48.838;2.322;2023-02-04T00:42:07;11.40;58.40
820;DHT22;392;48.838;2.322;2023-02-04T00:44:35;11.40;58.30
820;DHT22;392;48.838;2.322;2023-02-04T00:47:02;11.40;58.50
820;DHT22;392;48.838;2.322;2023-02-04T00:49:31;11.30;58.20
820;DHT22;392;48.838;2.322;2023-02-04T00:51:59;11.30;58.80
820;DHT22;392;48.838;2.322;2023-02-04T00:54:27;11.30;58.90
820;DHT22;392;48.838;2.322;2023-02-04T00:56:55;11.40;59.30
820;DHT22;392;48.838;2.322;2023-02-04T00:59:23;11.40;59.20
820;DHT22;392;48.838;2.322;2023-02-04T01:01:51;11.40;59.60
820;DHT22;392;48.838;2.322;2023-02-04T01:04:18;11.40;59.10
820;DHT22;392;48.838;2.322;2023-02-04T01:06:46;11.40;59.40
820;DHT22;392;48.838;2.322;2023-02-04T01:09:13;11.40;59.60
820;DHT22;392;48.838;2.322;2023-02-04T01:11:41;11.30;59.50
820;DHT22;392;48.838;2.322;2023-02-04T01:14:10;11.30;59.50
820;DHT22;392;48.838;2.322;2023-02-04T01:16:38;11.30;60.00
820;DHT22;392;48.838;2.322;2023-02-04T01:19:06;11.30;60.30
820;DHT22;392;48.838;2.322;2023-02-04T01:21:33;11.30;60.50
820;DHT22;392;48.838;2.322;2023-02-04T01:24:00;11.20;60.50
820;DHT22;392;48.838;2.322;2023-02-04T01:26:28;11.20;61.00
820;DHT22;392;48.838;2.322;2023-02-04T01:28:55;11.20;61.40
820;DHT22;392;48.838;2.322;2023-02-04T01:31:25;11.20;61.30
820;DHT22;392;48.838;2.322;2023-02-04T01:33:53;11.20;61.50
820;DHT22;392;48.838;2.322;2023-02-04T01:36:20;11.20;61.40
820;DHT22;392;48.838;2.322;2023-02-04T01:38:47;11.20;61.60
820;DHT22;392;48.838;2.322;2023-02-04T01:41:16;11.20;61.80
820;DHT22;392;48.838;2.322;2023-02-04T01:43:44;11.20;62.10
820;DHT22;392;48.838;2.322;2023-02-04T01:46:12;11.20;62.00
820;DHT22;392;48.838;2.322;2023-02-04T01:48:41;11.20;62.60
820;DHT22;392;48.838;2.322;2023-02-04T01:51:10;11.20;62.60
820;DHT22;392;48.838;2.322;2023-02-04T01:53:40;11.20;62.40
820;DHT22;392;48.838;2.322;2023-02-04T01:56:14;11.20;62.30
820;DHT22;392;48.838;2.322;2023-02-04T01:58:44;11.20;62.80
820;DHT22;392;48.838;2.322;2023-02-04T02:01:13;11.20;63.20
820;DHT22;392;48.838;2.322;2023-02-04T02:03:43;11.10;63.30
820;DHT22;392;48.838;2.322;2023-02-04T02:06:10;11.20;63.70
820;DHT22;392;48.838;2.322;2023-02-04T02:08:37;11.10;63.50
820;DHT22;392;48.838;2.322;2023-02-04T02:11:05;11.10;64.00
820;DHT22;392;48.838;2.322;2023-02-04T02:13:32;11.10;64.20
820;DHT22;392;48.838;2.322;2023-02-04T02:15:59;11.10;64.70
820;DHT22;392;48.838;2.322;2023-02-04T02:18:26;11.10;64.90
820;DHT22;392;48.838;2.322;2023-02-04T02:20:57;11.10;65.00
820;DHT22;392;48.838;2.322;2023-02-04T02:23:46;11.10;65.00
820;DHT22;392;48.838;2.322;2023-02-04T02:26:15;11.10;65.40
820;DHT22;392;48.838;2.322;2023-02-04T02:28:43;11.10;65.80
820;DHT22;392;48.838;2.322;2023-02-04T02:31:12;11.10;65.90
820;DHT22;392;48.838;2.322;2023-02-04T02:33:40;11.10;65.90
820;DHT22;392;48.838;2.322;2023-02-04T02:36:08;11.10;66.00
820;DHT22;392;48.838;2.322;2023-02-04T02:38:36;11.00;66.60
820;DHT22;392;48.838;2.322;2023-02-04T02:41:05;11.00;66.60
820;DHT22;392;48.838;2.322;2023-02-04T02:43:34;11.00;66.50
820;DHT22;392;48.838;2.322;2023-02-04T02:46:04;11.00;66.50
820;DHT22;392;48.838;2.322;2023-02-04T02:48:32;11.00;66.90
820;DHT22;392;48.838;2.322;2023-02-04T02:51:00;11.10;67.70
820;DHT22;392;48.838;2.322;2023-02-04T02:53:27;11.10;67.40
820;DHT22;392;48.838;2.322;2023-02-04T02:55:55;11.10;67.40
820;DHT22;392;48.838;2.322;2023-02-04T02:58:27;11.10;67.20
820;DHT22;392;48.838;2.322;2023-02-04T03:00:57;11.10;67.40
820;DHT22;392;48.838;2.322;2023-02-04T03:03:27;11.10;67.20
820;DHT22;392;48.838;2.322;2023-02-04T03:05:58;11.10;67.50
820;DHT22;392;48.838;2.322;2023-02-04T03:08:27;11.10;67.50
820;DHT22;392;48.838;2.322;2023-02-04T03:10:55;11.10;67.80
820;DHT22;392;48.838;2.322;2023-02-04T03:13:22;11.10;67.50
820;DHT22;392;48.838;2.322;2023-02-04T03:15:51;11.10;67.80
820;DHT22;392;48.838;2.322;2023-02-04T03:18:19;11.10;67.50
820;DHT22;392;48.838;2.322;2023-02-04T03:20:47;11.10;67.50
820;DHT22;392;48.838;2.322;2023-02-04T03:23:17;11.00;67.80
820;DHT22;392;48.838;2.322;2023-02-04T03:25:45;11.10;68.60
820;DHT22;392;48.838;2.322;2023-02-04T03:28:12;11.10;67.80
820;DHT22;392;48.838;2.322;2023-02-04T03:30:40;11.00;68.00
820;DHT22;392;48.838;2.322;2023-02-04T03:33:08;11.00;68.40
820;DHT22;392;48.838;2.322;2023-02-04T03:35:35;11.00;68.30
820;DHT22;392;48.838;2.322;2023-02-04T03:38:02;11.00;68.40
820;DHT22;392;48.838;2.322;2023-02-04T03:40:30;11.00;68.40
820;DHT22;392;48.838;2.322;2023-02-04T03:42:57;11.00;68.80
820;DHT22;392;48.838;2.322;2023-02-04T03:45:24;11.00;68.50
820;DHT22;392;48.838;2.322;2023-02-04T03:47:53;11.00;68.80
820;DHT22;392;48.838;2.322;2023-02-04T03:50:20;11.00;69.40
820;DHT22;392;48.838;2.322;2023-02-04T03:52:47;11.00;68.60
820;DHT22;392;48.838;2.322;2023-02-04T03:55:16;11.00;68.40
820;DHT22;392;48.838;2.322;2023-02-04T03:57:43;11.00;68.90
820;DHT22;392;48.838;2.322;2023-02-04T04:00:11;11.00;69.50
820;DHT22;392;48.838;2.322;2023-02-04T04:02:40;11.00;69.00
820;DHT22;392;48.838;2.322;2023-02-04T04:05:09;11.10;69.50
820;DHT22;392;48.838;2.322;2023-02-04T04:07:37;11.10;68.50
820;DHT22;392;48.838;2.322;2023-02-04T04:10:04;11.10;68.50
820;DHT22;392;48.838;2.322;2023-02-04T04:12:32;11.10;68.10
820;DHT22;392;48.838;2.322;2023-02-04T04:14:59;11.00;67.70
820;DHT22;392;48.838;2.322;2023-02-04T04:17:26;10.90;68.10
820;DHT22;392;48.838;2.322;2023-02-04T04:19:53;10.90;68.30
820;DHT22;392;48.838;2.322;2023-02-04T04:22:22;10.90;68.90
820;DHT22;392;48.838;2.322;2023-02-04T04:24:50;10.90;69.40
820;DHT22;392;48.838;2.322;2023-02-04T04:27:17;10.90;70.00
820;DHT22;392;48.838;2.322;2023-02-04T04:29:44;10.90;69.10
820;DHT22;392;48.838;2.322;2023-02-04T04:32:12;10.90;69.50
820;DHT22;392;48.838;2.322;2023-02-04T04:34:39;10.90;69.50
820;DHT22;392;48.838;2.322;2023-02-04T04:37:06;10.90;69.70
820;DHT22;392;48.838;2.322;2023-02-04T04:39:35;10.90;69.40
820;DHT22;392;48.838;2.322;2023-02-04T04:42:03;10.90;69.60
820;DHT22;392;48.838;2.322;2023-02-04T04:44:30;10.90;69.50
820;DHT22;392;48.838;2.322;2023-02-04T04:46:57;11.00;69.00
820;DHT22;392;48.838;2.322;2023-02-04T04:49:25;11.00;68.40
820;DHT22;392;48.838;2.322;2023-02-04T04:51:52;11.00;68.40
820;DHT22;392;48.838;2.322;2023-02-04T04:54:19;10.90;68.30
820;DHT22;392;48.838;2.322;2023-02-04T04:56:47;11.00;68.40
820;DHT22;392;48.838;2.322;2023-02-04T04:59:15;10.90;68.40
820;DHT22;392;48.838;2.322;2023-02-04T05:01:42;10.90;68.80
820;DHT22;392;48.838;2.322;2023-02-04T05:04:09;10.90;68.30
820;DHT22;392;48.838;2.322;2023-02-04T05:06:36;10.90;68.60
820;DHT22;392;48.838;2.322;2023-02-04T05:09:04;10.90;68.70
820;DHT22;392;48.838;2.322;2023-02-04T05:11:31;10.90;68.30
820;DHT22;392;48.838;2.322;2023-02-04T05:14:00;11.00;68.40
820;DHT22;392;48.838;2.322;2023-02-04T05:16:27;11.00;67.70
820;DHT22;392;48.838;2.322;2023-02-04T05:18:54;11.00;67.10
820;DHT22;392;48.838;2.322;2023-02-04T05:21:22;11.00;66.80
820;DHT22;392;48.838;2.322;2023-02-04T05:23:49;11.00;66.80
820;DHT22;392;48.838;2.322;2023-02-04T05:26:16;10.90;66.10
820;DHT22;392;48.838;2.322;2023-02-04T05:28:43;10.90;66.20
820;DHT22;392;48.838;2.322;2023-02-04T05:31:12;10.90;66.10
820;DHT22;392;48.838;2.322;2023-02-04T05:33:39;10.90;66.30
820;DHT22;392;48.838;2.322;2023-02-04T05:36:06;10.90;66.40
820;DHT22;392;48.838;2.322;2023-02-04T05:38:33;10.90;66.20
820;DHT22;392;48.838;2.322;2023-02-04T05:41:01;10.90;65.60
820;DHT22;392;48.838;2.322;2023-02-04T05:43:28;10.90;65.70
820;DHT22;392;48.838;2.322;2023-02-04T05:45:55;10.90;65.50
820;DHT22;392;48.838;2.322;2023-02-04T05:48:24;10.90;65.00
820;DHT22;392;48.838;2.322;2023-02-04T05:50:51;10.90;65.10
820;DHT22;392;48.838;2.322;2023-02-04T05:53:18;10.90;65.20
820;DHT22;392;48.838;2.322;2023-02-04T05:55:46;10.90;64.90
820;DHT22;392;48.838;2.322;2023-02-04T05:58:13;10.90;64.50
820;DHT22;392;48.838;2.322;2023-02-04T06:00:40;10.90;64.40
820;DHT22;392;48.838;2.322;2023-02-04T06:03:07;10.90;64.10
820;DHT22;392;48.838;2.322;2023-02-04T06:05:36;10.90;64.30
820;DHT22;392;48.838;2.322;2023-02-04T06:08:04;10.90;64.40
820;DHT22;392;48.838;2.322;2023-02-04T06:10:31;10.90;64.50
820;DHT22;392;48.838;2.322;2023-02-04T06:12:58;10.90;64.20
820;DHT22;392;48.838;2.322;2023-02-04T06:15:26;10.90;64.70
820;DHT22;392;48.838;2.322;2023-02-04T06:17:53;10.90;64.90
820;DHT22;392;48.838;2.322;2023-02-04T06:20:20;10.90;64.80
820;DHT22;392;48.838;2.322;2023-02-04T06:22:49;10.90;64.30
820;DHT22;392;48.838;2.322;2023-02-04T06:25:18;10.90;63.80
820;DHT22;392;48.838;2.322;2023-02-04T06:27:45;10.90;63.90
820;DHT22;392;48.838;2.322;2023-02-04T06:30:13;10.90;63.80
820;DHT22;392;48.838;2.322;2023-02-04T06:32:41;10.90;63.80
820;DHT22;392;48.838;2.322;2023-02-04T06:35:09;10.90;63.80
820;DHT22;392;48.838;2.322;2023-02-04T06:37:37;10.90;63.90
820;DHT22;392;48.838;2.322;2023-02-04T06:40:07;10.90;64.00
820;DHT22;392;48.838;2.322;2023-02-04T06:42:35;10.90;64.50
820;DHT22;392;48.838;2.322;2023-02-04T06:45:04;10.80;64.50
820;DHT22;392;48.838;2.322;2023-02-04T06:47:31;10.80;64.90
820;DHT22;392;48.838;2.322;2023-02-04T06:49:59;10.80;65.30
820;DHT22;392;48.838;2.322;2023-02-04T06:52:26;10.80;65.20
820;DHT22;392;48.838;2.322;2023-02-04T06:54:53;10.80;65.80
820;DHT22;392;48.838;2.322;2023-02-04T06:57:22;10.70;65.50
820;DHT22;392;48.838;2.322;2023-02-04T06:59:49;10.70;65.80
820;DHT22;392;48.838;2.322;2023-02-04T07:02:16;10.70;66.40
820;DHT22;392;48.838;2.322;2023-02-04T07:04:43;10.70;66.50
820;DHT22;392;48.838;2.322;2023-02-04T07:07:11;10.70;66.70
820;DHT22;392;48.838;2.322;2023-02-04T07:09:38;10.80;67.10
820;DHT22;392;48.838;2.322;2023-02-04T07:12:05;10.80;66.80
820;DHT22;392;48.838;2.322;2023-02-04T07:14:34;10.80;67.00
820;DHT22;392;48.838;2.322;2023-02-04T07:17:02;10.80;66.60
820;DHT22;392;48.838;2.322;2023-02-04T07:19:29;10.80;66.60
820;DHT22;392;48.838;2.322;2023-02-04T07:21:57;10.80;66.70
820;DHT22;392;48.838;2.322;2023-02-04T07:24:24;10.80;67.00
820;DHT22;392;48.838;2.322;2023-02-04T07:26:51;10.80;67.00
820;DHT22;392;48.838;2.322;2023-02-04T07:29:18;10.70;67.30
820;DHT22;392;48.838;2.322;2023-02-04T07:31:47;10.70;67.60
820;DHT22;392;48.838;2.322;2023-02-04T07:34:16;10.70;68.20
820;DHT22;392;48.838;2.322;2023-02-04T07:36:43;10.70;68.20
820;DHT22;392;48.838;2.322;2023-02-04T07:39:10;10.70;68.10
820;DHT22;392;48.838;2.322;2023-02-04T07:41:38;10.70;68.20
820;DHT22;392;48.838;2.322;2023-02-04T07:44:05;10.80;68.20
820;DHT22;392;48.838;2.322;2023-02-04T07:46:32;10.70;68.20
820;DHT22;392;48.838;2.322;2023-02-04T07:49:01;10.80;68.20
820;DHT22;392;48.838;2.322;2023-02-04T07:51:28;10.80;67.80
820;DHT22;392;48.838;2.322;2023-02-04T07:53:55;10.70;68.20
820;DHT22;392;48.838;2.322;2023-02-04T07:56:23;10.80;68.30
820;DHT22;392;48.838;2.322;2023-02-04T07:58:50;10.80;68.90
820;DHT22;392;48.838;2.322;2023-02-04T08:01:17;10.80;68.20
820;DHT22;392;48.838;2.322;2023-02-04T08:03:45;10.80;68.10
820;DHT22;392;48.838;2.322;2023-02-04T08:06:13;10.80;67.70
820;DHT22;392;48.838;2.322;2023-02-04T08:08:40;10.90;67.80
820;DHT22;392;48.838;2.322;2023-02-04T08:11:08;10.90;67.70
820;DHT22;392;48.838;2.322;2023-02-04T08:13:35;10.90;67.30
820;DHT22;392;48.838;2.322;2023-02-04T08:16:02;10.90;67.10
820;DHT22;392;48.838;2.322;2023-02-04T08:18:30;10.90;67.00
820;DHT22;392;48.838;2.322;2023-02-04T08:20:57;10.90;67.10
820;DHT22;392;48.838;2.322;2023-02-04T08:23:27;10.90;67.90
820;DHT22;392;48.838;2.322;2023-02-04T08:25:55;10.90;67.80
820;DHT22;392;48.838;2.322;2023-02-04T08:28:22;10.90;67.30
820;DHT22;392;48.838;2.322;2023-02-04T08:30:50;10.90;67.10
820;DHT22;392;48.838;2.322;2023-02-04T08:33:17;10.90;67.30
820;DHT22;392;48.838;2.322;2023-02-04T08:35:44;10.90;67.10
820;DHT22;392;48.838;2.322;2023-02-04T08:38:11;11.00;67.20
820;DHT22;392;48.838;2.322;2023-02-04T08:40:40;11.00;67.00
820;DHT22;392;48.838;2.322;2023-02-04T08:43:07;11.00;67.50
820;DHT22;392;48.838;2.322;2023-02-04T08:45:35;11.00;67.10
820;DHT22;392;48.838;2.322;2023-02-04T08:48:05;11.00;66.90
820;DHT22;392;48.838;2.322;2023-02-04T08:50:34;11.00;66.90
820;DHT22;392;48.838;2.322;2023-02-04T08:53:01;11.00;66.90
820;DHT22;392;48.838;2.322;2023-02-04T08:55:28;11.00;67.70
820;DHT22;392;48.838;2.322;2023-02-04T08:57:57;11.10;67.70
820;DHT22;392;48.838;2.322;2023-02-04T09:00:26;11.00;67.80
820;DHT22;392;48.838;2.322;2023-02-04T09:02:53;11.00;68.40
820;DHT22;392;48.838;2.322;2023-02-04T09:05:20;11.10;68.60
820;DHT22;392;48.838;2.322;2023-02-04T09:07:47;11.10;68.90
820;DHT22;392;48.838;2.322;2023-02-04T09:10:15;11.10;69.60
820;DHT22;392;48.838;2.322;2023-02-04T09:12:43;11.20;69.10
820;DHT22;392;48.838;2.322;2023-02-04T09:15:12;11.10;68.50
820;DHT22;392;48.838;2.322;2023-02-04T09:17:39;11.10;68.60
820;DHT22;392;48.838;2.322;2023-02-04T09:20:09;11.10;69.50
820;DHT22;392;48.838;2.322;2023-02-04T09:22:37;11.10;70.00
820;DHT22;392;48.838;2.322;2023-02-04T09:25:05;11.10;70.40
820;DHT22;392;48.838;2.322;2023-02-04T09:27:33;11.00;71.50
820;DHT22;392;48.838;2.322;2023-02-04T09:30:01;11.00;72.00
820;DHT22;392;48.838;2.322;2023-02-04T09:32:32;11.00;72.90
820;DHT22;392;48.838;2.322;2023-02-04T09:34:59;11.00;73.10
820;DHT22;392;48.838;2.322;2023-02-04T09:37:26;10.90;73.70
820;DHT22;392;48.838;2.322;2023-02-04T09:39:53;10.90;74.40
820;DHT22;392;48.838;2.322;2023-02-04T09:42:23;10.90;74.80
820;DHT22;392;48.838;2.322;2023-02-04T09:44:51;10.90;75.60
820;DHT22;392;48.838;2.322;2023-02-04T09:47:21;10.80;76.60
820;DHT22;392;48.838;2.322;2023-02-04T09:49:51;10.90;77.20
820;DHT22;392;48.838;2.322;2023-02-04T09:52:18;10.80;77.50
820;DHT22;392;48.838;2.322;2023-02-04T09:54:49;10.90;78.50
820;DHT22;392;48.838;2.322;2023-02-04T09:57:18;10.90;79.50
820;DHT22;392;48.838;2.322;2023-02-04T09:59:46;10.90;80.00
820;DHT22;392;48.838;2.322;2023-02-04T10:02:20;10.80;80.60
820;DHT22;392;48.838;2.322;2023-02-04T10:04:53;10.80;81.60
820;DHT22;392;48.838;2.322;2023-02-04T10:07:23;10.90;81.80
820;DHT22;392;48.838;2.322;2023-02-04T10:09:52;10.90;82.30
820;DHT22;392;48.838;2.322;2023-02-04T10:12:20;10.90;82.20
820;DHT22;392;48.838;2.322;2023-02-04T10:14:48;10.80;81.90
820;DHT22;392;48.838;2.322;2023-02-04T10:17:19;10.80;82.20
820;DHT22;392;48.838;2.322;2023-02-04T10:19:47;10.80;82.60
820;DHT22;392;48.838;2.322;2023-02-04T10:22:18;10.70;83.30
820;DHT22;392;48.838;2.322;2023-02-04T10:24:47;10.70;84.00
820;DHT22;392;48.838;2.322;2023-02-04T10:27:14;10.80;84.70
820;DHT22;392;48.838;2.322;2023-02-04T10:29:42;10.80;84.90
820;DHT22;392;48.838;2.322;2023-02-04T10:32:27;10.90;85.10
820;DHT22;392;48.838;2.322;2023-02-04T10:34:59;10.90;85.40
820;DHT22;392;48.838;2.322;2023-02-04T10:37:29;10.90;85.30
820;DHT22;392;48.838;2.322;2023-02-04T10:39:57;10.90;85.50
820;DHT22;392;48.838;2.322;2023-02-04T10:42:26;10.90;85.90
820;DHT22;392;48.838;2.322;2023-02-04T10:44:54;10.90;86.30
820;DHT22;392;48.838;2.322;2023-02-04T10:47:23;10.90;86.50
820;DHT22;392;48.838;2.322;2023-02-04T10:49:57;10.90;86.60
820;DHT22;392;48.838;2.322;2023-02-04T10:52:34;11.00;86.70
820;DHT22;392;48.838;2.322;2023-02-04T10:55:05;11.00;86.50
820;DHT22;392;48.838;2.322;2023-02-04T10:57:37;11.00;85.90
820;DHT22;392;48.838;2.322;2023-02-04T11:02:44;11.00;85.20
820;DHT22;392;48.838;2.322;2023-02-04T11:05:17;11.10;85.30
820;DHT22;392;48.838;2.322;2023-02-04T11:07:48;11.00;84.80
820;DHT22;392;48.838;2.322;2023-02-04T11:10:18;11.00;85.00
820;DHT22;392;48.838;2.322;2023-02-04T11:12:59;10.90;85.60
820;DHT22;392;48.838;2.322;2023-02-04T11:15:49;10.90;86.30
820;DHT22;392;48.838;2.322;2023-02-04T11:18:28;11.00;86.40
820;DHT22;392;48.838;2.322;2023-02-04T11:20:57;11.10;86.10
820;DHT22;392;48.838;2.322;2023-02-04T11:23:32;11.10;86.10
820;DHT22;392;48.838;2.322;2023-02-04T11:26:04;11.20;85.80
820;DHT22;392;48.838;2.322;2023-02-04T11:28:49;11.20;85.00
820;DHT22;392;48.838;2.322;2023-02-04T11:31:56;11.20;84.80
820;DHT22;392;48.838;2.322;2023-02-04T11:34:27;11.20;84.10
820;DHT22;392;48.838;2.322;2023-02-04T11:37:05;11.30;84.20
820;DHT22;392;48.838;2.322;2023-02-04T11:39:41;11.30;83.80
820;DHT22;392;48.838;2.322;2023-02-04T11:42:17;11.30;83.80
820;DHT22;392;48.838;2.322;2023-02-04T11:44:53;11.30;83.20
820;DHT22;392;48.838;2.322;2023-02-04T11:47:23;11.30;82.20
820;DHT22;392;48.838;2.322;2023-02-04T11:49:56;11.30;82.00
820;DHT22;392;48.838;2.322;2023-02-04T11:52:26;11.30;82.00
820;DHT22;392;48.838;2.322;2023-02-04T11:54:56;11.30;81.80
820;DHT22;392;48.838;2.322;2023-02-04T11:57:24;11.40;82.10
820;DHT22;392;48.838;2.322;2023-02-04T11:59:52;11.40;82.00
820;DHT22;392;48.838;2.322;2023-02-04T12:02:21;11.50;81.90
820;DHT22;392;48.838;2.322;2023-02-04T12:04:53;11.50;81.60
820;DHT22;392;48.838;2.322;2023-02-04T12:07:24;11.60;82.20
820;DHT22;392;48.838;2.322;2023-02-04T12:09:54;11.60;81.90
820;DHT22;392;48.838;2.322;2023-02-04T12:12:23;11.70;82.10
820;DHT22;392;48.838;2.322;2023-02-04T12:14:57;11.70;81.70
820;DHT22;392;48.838;2.322;2023-02-04T12:17:26;11.70;81.20
820;DHT22;392;48.838;2.322;2023-02-04T12:19:54;11.70;80.90
820;DHT22;392;48.838;2.322;2023-02-04T12:22:21;11.60;80.30
820;DHT22;392;48.838;2.322;2023-02-04T12:24:48;11.60;80.50
820;DHT22;392;48.838;2.322;2023-02-04T12:27:18;11.60;80.60
820;DHT22;392;48.838;2.322;2023-02-04T12:29:45;11.50;81.60
820;DHT22;392;48.838;2.322;2023-02-04T12:32:12;11.40;82.10
820;DHT22;392;48.838;2.322;2023-02-04T12:34:40;11.40;82.70
820;DHT22;392;48.838;2.322;2023-02-04T12:37:07;11.30;82.90
820;DHT22;392;48.838;2.322;2023-02-04T12:39:34;11.30;83.30
820;DHT22;392;48.838;2.322;2023-02-04T12:42:01;11.30;84.10
820;DHT22;392;48.838;2.322;2023-02-04T12:44:31;11.20;84.90
820;DHT22;392;48.838;2.322;2023-02-04T12:47:00;11.20;84.60
820;DHT22;392;48.838;2.322;2023-02-04T12:49:27;11.20;84.20
820;DHT22;392;48.838;2.322;2023-02-04T12:51:54;11.20;83.70
820;DHT22;392;48.838;2.322;2023-02-04T12:54:24;11.30;82.40
820;DHT22;392;48.838;2.322;2023-02-04T12:56:51;11.30;81.00
820;DHT22;392;48.838;2.322;2023-02-04T12:59:22;11.30;79.60
820;DHT22;392;48.838;2.322;2023-02-04T13:01:51;11.40;78.80
820;DHT22;392;48.838;2.322;2023-02-04T13:04:19;11.50;77.90
820;DHT22;392;48.838;2.322;2023-02-04T13:06:46;11.60;76.70
820;DHT22;392;48.838;2.322;2023-02-04T13:09:13;11.70;75.20
820;DHT22;392;48.838;2.322;2023-02-04T13:11:41;11.80;73.10
820;DHT22;392;48.838;2.322;2023-02-04T13:14:08;11.90;71.30
820;DHT22;392;48.838;2.322;2023-02-04T13:16:35;11.90;69.30
820;DHT22;392;48.838;2.322;2023-02-04T13:19:04;11.90;65.80
820;DHT22;392;48.838;2.322;2023-02-04T13:21:31;11.90;63.70
820;DHT22;392;48.838;2.322;2023-02-04T13:23:58;11.90;63.70
820;DHT22;392;48.838;2.322;2023-02-04T13:26:26;12.00;63.30
820;DHT22;392;48.838;2.322;2023-02-04T13:28:53;12.10;62.70
820;DHT22;392;48.838;2.322;2023-02-04T13:31:20;12.20;61.80
820;DHT22;392;48.838;2.322;2023-02-04T13:33:47;12.20;60.30
820;DHT22;392;48.838;2.322;2023-02-04T13:36:16;12.30;59.00
820;DHT22;392;48.838;2.322;2023-02-04T13:38:43;12.30;58.80
820;DHT22;392;48.838;2.322;2023-02-04T13:41:10;12.30;58.60
820;DHT22;392;48.838;2.322;2023-02-04T13:43:38;12.40;57.80
820;DHT22;392;48.838;2.322;2023-02-04T13:46:05;12.40;57.20
820;DHT22;392;48.838;2.322;2023-02-04T13:48:32;12.40;56.50
820;DHT22;392;48.838;2.322;2023-02-04T13:50:59;12.30;57.00
820;DHT22;392;48.838;2.322;2023-02-04T13:53:28;12.30;57.80
820;DHT22;392;48.838;2.322;2023-02-04T13:55:58;12.30;58.10
820;DHT22;392;48.838;2.322;2023-02-04T13:58:26;12.40;58.40
820;DHT22;392;48.838;2.322;2023-02-04T14:00:53;12.40;58.30
820;DHT22;392;48.838;2.322;2023-02-04T14:03:22;12.50;58.20
820;DHT22;392;48.838;2.322;2023-02-04T14:05:50;12.60;58.20
820;DHT22;392;48.838;2.322;2023-02-04T14:08:17;12.60;58.40
820;DHT22;392;48.838;2.322;2023-02-04T14:10:47;12.70;58.50
820;DHT22;392;48.838;2.322;2023-02-04T14:13:14;12.70;58.00
820;DHT22;392;48.838;2.322;2023-02-04T14:15:41;12.70;58.40
820;DHT22;392;48.838;2.322;2023-02-04T14:18:09;12.70;57.90
820;DHT22;392;48.838;2.322;2023-02-04T14:20:36;12.70;57.70
820;DHT22;392;48.838;2.322;2023-02-04T14:23:04;12.70;56.70
820;DHT22;392;48.838;2.322;2023-02-04T14:25:32;12.60;57.10
820;DHT22;392;48.838;2.322;2023-02-04T14:28:01;12.50;57.30
820;DHT22;392;48.838;2.322;2023-02-04T14:30:29;12.50;58.00
820;DHT22;392;48.838;2.322;2023-02-04T14:32:57;12.50;58.00
820;DHT22;392;48.838;2.322;2023-02-04T14:35:25;12.40;57.70
820;DHT22;392;48.838;2.322;2023-02-04T14:37:52;12.40;57.30
820;DHT22;392;48.838;2.322;2023-02-04T14:40:20;12.40;57.60
820;DHT22;392;48.838;2.322;2023-02-04T14:42:47;12.40;58.00
820;DHT22;392;48.838;2.322;2023-02-04T14:45:16;12.40;57.90
820;DHT22;392;48.838;2.322;2023-02-04T14:47:44;12.40;58.00
820;DHT22;392;48.838;2.322;2023-02-04T14:50:13;12.50;57.80
820;DHT22;392;48.838;2.322;2023-02-04T14:52:42;12.50;57.20
820;DHT22;392;48.838;2.322;2023-02-04T14:55:09;12.50;56.50
820;DHT22;392;48.838;2.322;2023-02-04T14:57:37;12.50;56.20
820;DHT22;392;48.838;2.322;2023-02-04T15:00:05;12.50;56.20
820;DHT22;392;48.838;2.322;2023-02-04T15:02:34;12.50;55.90
820;DHT22;392;48.838;2.322;2023-02-04T15:05:02;12.60;55.40
820;DHT22;392;48.838;2.322;2023-02-04T15:07:48;12.60;54.70
820;DHT22;392;48.838;2.322;2023-02-04T15:10:15;12.60;53.50
820;DHT22;392;48.838;2.322;2023-02-04T15:12:42;12.60;53.00
820;DHT22;392;48.838;2.322;2023-02-04T15:15:10;12.60;53.10
820;DHT22;392;48.838;2.322;2023-02-04T15:18:05;12.50;53.50
820;DHT22;392;48.838;2.322;2023-02-04T15:20:32;12.50;54.20
820;DHT22;392;48.838;2.322;2023-02-04T15:22:59;12.50;54.80
820;DHT22;392;48.838;2.322;2023-02-04T15:25:26;12.40;55.30
820;DHT22;392;48.838;2.322;2023-02-04T15:27:54;12.30;55.70
820;DHT22;392;48.838;2.322;2023-02-04T15:30:21;12.30;56.80
820;DHT22;392;48.838;2.322;2023-02-04T15:32:48;12.30;57.50
820;DHT22;392;48.838;2.322;2023-02-04T15:35:19;12.40;57.20
820;DHT22;392;48.838;2.322;2023-02-04T15:38:04;12.40;56.80
820;DHT22;392;48.838;2.322;2023-02-04T15:40:32;12.40;56.10
820;DHT22;392;48.838;2.322;2023-02-04T15:42:59;12.50;55.60
820;DHT22;392;48.838;2.322;2023-02-04T15:45:26;12.50;54.60
820;DHT22;392;48.838;2.322;2023-02-04T15:47:54;12.50;54.10
820;DHT22;392;48.838;2.322;2023-02-04T15:50:22;12.50;53.70
820;DHT22;392;48.838;2.322;2023-02-04T15:52:50;12.50;52.30
820;DHT22;392;48.838;2.322;2023-02-04T15:55:17;12.50;51.10
820;DHT22;392;48.838;2.322;2023-02-04T15:57:44;12.50;51.20
820;DHT22;392;48.838;2.322;2023-02-04T16:00:13;12.40;51.90
820;DHT22;392;48.838;2.322;2023-02-04T16:02:40;12.50;51.90
820;DHT22;392;48.838;2.322;2023-02-04T16:05:08;12.40;51.00
820;DHT22;392;48.838;2.322;2023-02-04T16:07:36;12.40;51.00
820;DHT22;392;48.838;2.322;2023-02-04T16:10:04;12.40;50.70
820;DHT22;392;48.838;2.322;2023-02-04T16:12:32;12.40;50.40
820;DHT22;392;48.838;2.322;2023-02-04T16:14:59;12.40;49.70
820;DHT22;392;48.838;2.322;2023-02-04T16:17:26;12.40;49.20
820;DHT22;392;48.838;2.322;2023-02-04T16:19:53;12.40;49.00
820;DHT22;392;48.838;2.322;2023-02-04T16:22:21;12.30;48.90
820;DHT22;392;48.838;2.322;2023-02-04T16:24:50;12.30;48.50
820;DHT22;392;48.838;2.322;2023-02-04T16:27:18;12.30;48.00
820;DHT22;392;48.838;2.322;2023-02-04T16:29:46;12.30;47.80
820;DHT22;392;48.838;2.322;2023-02-04T16:32:14;12.30;47.60
820;DHT22;392;48.838;2.322;2023-02-04T16:34:41;12.30;47.50
820;DHT22;392;48.838;2.322;2023-02-04T16:37:09;12.30;47.40
820;DHT22;392;48.838;2.322;2023-02-04T16:39:36;12.30;47.30
820;DHT22;392;48.838;2.322;2023-02-04T16:42:06;12.30;47.60
820;DHT22;392;48.838;2.322;2023-02-04T16:44:33;12.30;48.10